Time;durP1;ratioP1;P1;durP2;ratioP2;P2;SDS_P1;SDS_P2;PMS_P1;PMS_P2;Temp;Humidity;BMP_temperature;BMP_pressure;BME280_temperature;BME280_humidity;BME280_pressure;Samples;Min_cycle;Max_cycle;Signal;HPM_P1;HPM_P2
2022/08/13 00:00:59;;;;;;;7.40;4.20;;;;;;;;;;5038545;28;20041;-40
2022/08/13 00:03:28;;;;;;;8.18;3.95;;;;;;;;;;5035700;28;20060;-42
2022/08/13 00:05:55;;;;;;;9.10;4.40;;;;;;;;;;5022735;28;20041;-47
2022/08/13 00:08:25;;;;;;;8.18;4.03;;;;;;;;;;5044053;28;20525;-44
2022/08/13 00:10:51;;;;;;;8.87;4.30;;;;;;;;;;5049372;28;20106;-42
2022/08/13 00:13:18;;;;;;;10.05;3.97;;;;;;;;;;5041957;28;20111;-41
2022/08/13 00:15:46;;;;;;;9.90;4.10;;;;;;;;;;5033947;28;20041;-41
2022/08/13 00:18:15;;;;;;;10.55;4.82;;;;;;;;;;5040650;28;20056;-48
2022/08/13 00:20:43;;;;;;;7.43;4.05;;;;;;;;;;5038126;28;20053;-43
2022/08/13 00:23:13;;;;;;;9.00;4.73;;;;;;;;;;5038453;28;20626;-41
2022/08/13 00:25:40;;;;;;;8.90;4.20;;;;;;;;;;5050303;28;20048;-39
2022/08/13 00:28:06;;;;;;;7.10;3.92;;;;;;;;;;5053174;28;20061;-40
2022/08/13 00:30:34;;;;;;;11.27;4.50;;;;;;;;;;5031986;28;20124;-44
2022/08/13 00:33:02;;;;;;;7.57;4.20;;;;;;;;;;5048081;28;20044;-41
2022/08/13 00:35:30;;;;;;;8.97;4.13;;;;;;;;;;5047233;28;21458;-39
2022/08/13 00:37:57;;;;;;;11.45;4.47;;;;;;;;;;5046226;28;20055;-40
2022/08/13 00:40:26;;;;;;;21.42;5.07;;;;;;;;;;5043262;28;20045;-39
2022/08/13 00:42:53;;;;;;;9.95;4.35;;;;;;;;;;5033713;28;20112;-44
2022/08/13 00:45:20;;;;;;;10.52;4.90;;;;;;;;;;5055171;28;20053;-41
2022/08/13 00:50:32;;;;;;;9.85;4.22;;;;;;;;;;5030316;28;20071;-42
2022/08/13 00:52:59;;;;;;;11.10;4.40;;;;;;;;;;5044638;28;20041;-40
2022/08/13 00:55:27;;;;;;;7.68;4.93;;;;;;;;;;5049041;28;20044;-44
2022/08/13 00:57:54;;;;;;;9.07;4.32;;;;;;;;;;5022738;28;20045;-43
2022/08/13 01:00:23;;;;;;;8.97;4.50;;;;;;;;;;5050940;28;20046;-39
2022/08/13 01:02:51;;;;;;;9.07;4.35;;;;;;;;;;5046677;28;20426;-44
2022/08/13 01:05:20;;;;;;;8.27;4.35;;;;;;;;;;5053333;28;20049;-42
2022/08/13 01:07:47;;;;;;;8.13;4.55;;;;;;;;;;5035896;28;20087;-41
2022/08/13 01:10:14;;;;;;;8.10;5.07;;;;;;;;;;5053879;28;20048;-44
2022/08/13 01:12:42;;;;;;;9.40;4.43;;;;;;;;;;5040191;28;20044;-41
2022/08/13 01:15:12;;;;;;;11.55;5.55;;;;;;;;;;5042350;28;20053;-44
2022/08/13 01:17:39;;;;;;;8.98;5.07;;;;;;;;;;5048603;28;20584;-38
2022/08/13 01:20:09;;;;;;;11.35;5.38;;;;;;;;;;5043928;28;20052;-42
2022/08/13 01:22:38;;;;;;;9.18;5.40;;;;;;;;;;5043907;28;20053;-43
2022/08/13 01:25:06;;;;;;;12.13;5.60;;;;;;;;;;5039073;28;20036;-40
2022/08/13 01:27:33;;;;;;;14.32;5.75;;;;;;;;;;5043032;28;20064;-45
2022/08/13 01:30:05;;;;;;;10.95;5.53;;;;;;;;;;5035094;28;20076;-43
2022/08/13 01:32:31;;;;;;;11.20;5.80;;;;;;;;;;5045626;28;20068;-41
2022/08/13 01:35:00;;;;;;;8.65;5.65;;;;;;;;;;5050804;28;20057;-41
2022/08/13 01:37:26;;;;;;;12.00;5.43;;;;;;;;;;5040861;28;20053;-42
2022/08/13 01:39:54;;;;;;;9.02;5.20;;;;;;;;;;5044882;28;20068;-41
2022/08/13 01:42:24;;;;;;;11.38;5.00;;;;;;;;;;5053697;28;20074;-42
2022/08/13 01:44:51;;;;;;;8.68;4.15;;;;;;;;;;5052271;28;20098;-39
2022/08/13 01:52:47;;;;;;;7.88;4.85;;;;;;;;;;5011833;28;20045;-40
2022/08/13 01:55:15;;;;;;;12.15;5.10;;;;;;;;;;5045233;28;20141;-40
2022/08/13 01:57:44;;;;;;;9.93;4.68;;;;;;;;;;5035368;28;20033;-39
2022/08/13 02:00:13;;;;;;;8.32;4.80;;;;;;;;;;5031431;28;20492;-39
2022/08/13 02:02:43;;;;;;;9.70;5.13;;;;;;;;;;5044850;28;20049;-40
2022/08/13 02:05:10;;;;;;;8.80;5.20;;;;;;;;;;4996318;28;20049;-40
2022/08/13 02:07:37;;;;;;;11.48;5.05;;;;;;;;;;5043959;28;20037;-41
2022/08/13 02:10:04;;;;;;;10.73;4.50;;;;;;;;;;5054816;28;20048;-41
2022/08/13 02:12:32;;;;;;;8.65;4.43;;;;;;;;;;5046533;28;20052;-38
2022/08/13 02:15:01;;;;;;;8.90;4.63;;;;;;;;;;5025668;28;20045;-41
2022/08/13 02:17:33;;;;;;;7.72;4.00;;;;;;;;;;5004971;28;20044;-40
2022/08/13 02:19:59;;;;;;;7.85;4.68;;;;;;;;;;5006814;28;20060;-41
2022/08/13 02:22:26;;;;;;;10.70;4.63;;;;;;;;;;5043777;28;20449;-43
2022/08/13 02:24:54;;;;;;;7.25;4.68;;;;;;;;;;5019890;28;20045;-41
2022/08/13 02:27:21;;;;;;;8.23;4.87;;;;;;;;;;5038910;28;20135;-41
2022/08/13 02:29:50;;;;;;;7.25;4.45;;;;;;;;;;5045255;28;20127;-40
2022/08/13 02:32:17;;;;;;;10.13;4.57;;;;;;;;;;5037748;28;20131;-40
2022/08/13 02:34:44;;;;;;;8.90;5.00;;;;;;;;;;5046668;28;20525;-40
2022/08/13 02:37:11;;;;;;;8.95;4.63;;;;;;;;;;5049213;28;20180;-40
2022/08/13 02:39:38;;;;;;;9.63;3.97;;;;;;;;;;5041590;28;20053;-41
2022/08/13 02:42:03;;;;;;;8.13;4.35;;;;;;;;;;5045684;28;20045;-40
2022/08/13 02:44:30;;;;;;;9.27;5.03;;;;;;;;;;5053724;28;20075;-39
2022/08/13 02:46:58;;;;;;;9.15;3.67;;;;;;;;;;5029467;28;20182;-39
2022/08/13 02:49:24;;;;;;;7.63;5.17;;;;;;;;;;5036986;28;20624;-41
2022/08/13 02:51:51;;;;;;;9.50;4.22;;;;;;;;;;5025868;28;20049;-40
2022/08/13 02:54:20;;;;;;;10.10;4.68;;;;;;;;;;5053637;28;20045;-39
2022/08/13 02:56:47;;;;;;;8.85;4.05;;;;;;;;;;5055249;28;20049;-40
2022/08/13 02:59:13;;;;;;;8.23;3.85;;;;;;;;;;5053216;28;20122;-41
2022/08/13 03:01:40;;;;;;;10.07;4.17;;;;;;;;;;5044380;28;20045;-40
2022/08/13 03:04:09;;;;;;;12.23;3.97;;;;;;;;;;5037715;28;20055;-43
2022/08/13 03:06:35;;;;;;;8.40;4.30;;;;;;;;;;5042194;28;20049;-42
2022/08/13 03:09:03;;;;;;;7.82;4.13;;;;;;;;;;5044857;28;20584;-41
2022/08/13 03:11:29;;;;;;;8.60;4.53;;;;;;;;;;5054838;28;20490;-40
2022/08/13 03:13:57;;;;;;;8.23;4.10;;;;;;;;;;5048762;28;20041;-41
2022/08/13 03:16:26;;;;;;;7.60;4.47;;;;;;;;;;5051654;28;20044;-39
2022/08/13 03:18:53;;;;;;;10.50;4.28;;;;;;;;;;5054656;28;20597;-44
2022/08/13 03:21:21;;;;;;;7.55;3.95;;;;;;;;;;5047088;28;20094;-40
2022/08/13 03:23:48;;;;;;;9.63;3.72;;;;;;;;;;5047998;28;20097;-42
2022/08/13 03:26:14;;;;;;;6.67;3.80;;;;;;;;;;5041045;28;20099;-41
2022/08/13 03:28:41;;;;;;;7.80;4.05;;;;;;;;;;5044236;28;20040;-40
2022/08/13 03:31:07;;;;;;;7.47;4.35;;;;;;;;;;5048080;28;20041;-40
2022/08/13 03:33:35;;;;;;;9.23;4.53;;;;;;;;;;5037509;28;20079;-40
2022/08/13 03:36:01;;;;;;;8.05;3.70;;;;;;;;;;5036525;28;20052;-41
2022/08/13 03:38:29;;;;;;;8.30;4.07;;;;;;;;;;5038776;28;20114;-39
2022/08/13 03:41:02;;;;;;;6.45;3.30;;;;;;;;;;5047316;28;20057;-40
2022/08/13 03:43:29;;;;;;;7.43;3.65;;;;;;;;;;5040968;28;20057;-39
2022/08/13 03:45:57;;;;;;;9.85;3.45;;;;;;;;;;5044771;28;20060;-39
2022/08/13 03:48:25;;;;;;;7.18;3.17;;;;;;;;;;5061273;28;20075;-39
2022/08/13 03:50:52;;;;;;;6.67;3.00;;;;;;;;;;5044001;28;20079;-41
2022/08/13 03:53:20;;;;;;;7.97;3.25;;;;;;;;;;5049288;28;20056;-40
2022/08/13 03:55:48;;;;;;;5.90;2.80;;;;;;;;;;5050694;28;20128;-41
2022/08/13 03:58:15;;;;;;;8.70;2.85;;;;;;;;;;5053073;28;20083;-41
2022/08/13 04:00:47;;;;;;;6.53;3.05;;;;;;;;;;5043503;28;20075;-39
2022/08/13 04:03:16;;;;;;;8.47;3.20;;;;;;;;;;5054788;28;20600;-40
2022/08/13 04:05:43;;;;;;;8.63;3.20;;;;;;;;;;5042680;28;20051;-40
2022/08/13 04:08:10;;;;;;;6.75;3.45;;;;;;;;;;5052042;28;20059;-39
2022/08/13 04:10:37;;;;;;;8.68;3.03;;;;;;;;;;5044142;28;20076;-39
2022/08/13 04:13:05;;;;;;;7.82;3.30;;;;;;;;;;5055348;28;20112;-40
2022/08/13 04:15:31;;;;;;;6.40;2.90;;;;;;;;;;5050937;28;20147;-40
2022/08/13 04:17:58;;;;;;;7.57;3.10;;;;;;;;;;5041168;28;20426;-39
2022/08/13 04:20:25;;;;;;;8.50;3.35;;;;;;;;;;5042483;28;20789;-41
2022/08/13 04:22:52;;;;;;;8.77;3.05;;;;;;;;;;5045018;28;20063;-39
2022/08/13 04:25:19;;;;;;;6.50;3.03;;;;;;;;;;5048166;28;20528;-39
2022/08/13 04:27:46;;;;;;;7.07;3.30;;;;;;;;;;5049861;28;20053;-42
2022/08/13 04:30:20;;;;;;;8.23;3.35;;;;;;;;;;5026986;28;20096;-40
2022/08/13 04:32:48;;;;;;;7.28;3.28;;;;;;;;;;5046960;28;20057;-39
2022/08/13 04:35:15;;;;;;;6.75;2.65;;;;;;;;;;5047314;28;20045;-41
2022/08/13 04:37:41;;;;;;;11.00;4.15;;;;;;;;;;5053221;28;20051;-39
2022/08/13 04:40:10;;;;;;;8.03;3.37;;;;;;;;;;5044118;28;20053;-44
2022/08/13 04:42:49;;;;;;;7.05;3.67;;;;;;;;;;5044640;28;20127;-41
2022/08/13 04:45:17;;;;;;;9.52;3.88;;;;;;;;;;5048064;28;20083;-39
2022/08/13 04:47:44;;;;;;;8.02;3.00;;;;;;;;;;5050380;28;20040;-41
2022/08/13 04:50:11;;;;;;;11.40;3.47;;;;;;;;;;5058120;28;20072;-39
2022/08/13 04:52:38;;;;;;;9.03;3.33;;;;;;;;;;5025625;28;20044;-42
2022/08/13 04:55:06;;;;;;;8.15;3.55;;;;;;;;;;5041196;28;20047;-41
2022/08/13 04:57:33;;;;;;;8.65;4.40;;;;;;;;;;5037819;28;20063;-42
2022/08/13 05:00:02;;;;;;;12.35;3.78;;;;;;;;;;5040578;28;20076;-39
2022/08/13 05:02:30;;;;;;;8.85;4.03;;;;;;;;;;5047609;28;20087;-39
2022/08/13 05:04:57;;;;;;;6.60;3.87;;;;;;;;;;5046343;28;20061;-41
2022/08/13 05:07:24;;;;;;;8.98;3.53;;;;;;;;;;5042412;28;20061;-39
2022/08/13 05:09:51;;;;;;;12.35;4.15;;;;;;;;;;5056648;28;20045;-40
2022/08/13 05:12:17;;;;;;;8.05;3.78;;;;;;;;;;5045590;28;20053;-41
2022/08/13 05:14:44;;;;;;;10.50;4.25;;;;;;;;;;5047420;28;20396;-39
2022/08/13 05:17:10;;;;;;;8.33;3.53;;;;;;;;;;5043060;28;20072;-40
2022/08/13 05:19:38;;;;;;;9.02;4.03;;;;;;;;;;5038084;28;20045;-40
2022/08/13 05:22:05;;;;;;;8.65;4.15;;;;;;;;;;5042187;28;20072;-40
2022/08/13 05:24:32;;;;;;;10.70;4.00;;;;;;;;;;5055563;28;20049;-40
2022/08/13 05:26:58;;;;;;;11.38;4.53;;;;;;;;;;5019263;28;20959;-40
2022/08/13 05:29:25;;;;;;;7.67;3.47;;;;;;;;;;5038746;28;20051;-42
2022/08/13 05:31:54;;;;;;;7.82;4.18;;;;;;;;;;5030479;28;20045;-40
2022/08/13 05:34:20;;;;;;;10.25;4.22;;;;;;;;;;5063352;28;20055;-45
2022/08/13 05:36:48;;;;;;;11.15;4.70;;;;;;;;;;5035890;28;20523;-40
2022/08/13 05:39:15;;;;;;;11.30;4.05;;;;;;;;;;5045293;28;20045;-44
2022/08/13 05:41:42;;;;;;;9.27;3.97;;;;;;;;;;5022129;28;20052;-40
2022/08/13 05:44:10;;;;;;;13.15;4.38;;;;;;;;;;5020470;28;20052;-40
2022/08/13 05:46:37;;;;;;;9.30;4.82;;;;;;;;;;5056036;28;20075;-38
2022/08/13 05:49:04;;;;;;;9.15;4.18;;;;;;;;;;5027633;28;20238;-42
2022/08/13 05:51:32;;;;;;;10.90;4.70;;;;;;;;;;5052908;28;20081;-41
2022/08/13 05:54:00;;;;;;;11.60;3.93;;;;;;;;;;5044844;28;20041;-41
2022/08/13 05:56:29;;;;;;;13.77;4.70;;;;;;;;;;5052092;28;20113;-39
2022/08/13 05:58:55;;;;;;;13.68;4.53;;;;;;;;;;5042191;28;20052;-41
2022/08/13 06:04:09;;;;;;;9.50;4.53;;;;;;;;;;5042157;28;20060;-41
2022/08/13 06:06:36;;;;;;;10.17;4.60;;;;;;;;;;5055514;28;20079;-41
2022/08/13 06:09:05;;;;;;;11.38;4.90;;;;;;;;;;5051155;28;20063;-41
2022/08/13 06:11:32;;;;;;;11.57;6.03;;;;;;;;;;5033863;28;20060;-42
2022/08/13 06:13:59;;;;;;;12.02;5.45;;;;;;;;;;5029783;28;20087;-45
2022/08/13 06:16:28;;;;;;;9.98;4.47;;;;;;;;;;5045882;28;20064;-41
2022/08/13 06:18:57;;;;;;;9.40;4.83;;;;;;;;;;5044308;28;20045;-43
2022/08/13 06:21:24;;;;;;;11.50;5.50;;;;;;;;;;5037816;28;20045;-41
2022/08/13 06:23:51;;;;;;;10.13;5.00;;;;;;;;;;5048970;28;20484;-44
2022/08/13 06:26:21;;;;;;;9.93;4.85;;;;;;;;;;5051432;28;20049;-43
2022/08/13 06:28:47;;;;;;;13.95;5.65;;;;;;;;;;5046548;28;20104;-39
2022/08/13 06:31:16;;;;;;;11.23;5.77;;;;;;;;;;5043352;28;20059;-41
2022/08/13 06:33:44;;;;;;;13.40;5.75;;;;;;;;;;5047354;28;20082;-42
2022/08/13 06:36:11;;;;;;;14.70;6.05;;;;;;;;;;5038177;28;20306;-44
2022/08/13 06:38:41;;;;;;;12.63;5.57;;;;;;;;;;5040704;28;20103;-42
2022/08/13 06:41:09;;;;;;;13.23;5.95;;;;;;;;;;5032351;28;20048;-44
2022/08/13 06:43:38;;;;;;;14.73;5.77;;;;;;;;;;5045555;28;20056;-46
2022/08/13 06:46:05;;;;;;;10.98;5.35;;;;;;;;;;5041966;28;20084;-45
2022/08/13 06:48:32;;;;;;;12.32;5.47;;;;;;;;;;5030687;28;20052;-42
2022/08/13 06:50:59;;;;;;;11.30;6.70;;;;;;;;;;5053222;28;20040;-39
2022/08/13 06:53:26;;;;;;;11.68;6.15;;;;;;;;;;5033730;28;20052;-43
2022/08/13 06:55:53;;;;;;;13.43;6.63;;;;;;;;;;5055239;28;20045;-41
2022/08/13 06:58:27;;;;;;;15.85;7.15;;;;;;;;;;5031206;28;20041;-43
2022/08/13 07:00:56;;;;;;;12.98;6.88;;;;;;;;;;5045890;28;20071;-40
2022/08/13 07:03:26;;;;;;;14.77;5.75;;;;;;;;;;5052965;28;20067;-43
2022/08/13 07:05:52;;;;;;;12.98;6.40;;;;;;;;;;5046370;28;20048;-43
2022/08/13 07:08:20;;;;;;;13.10;5.50;;;;;;;;;;5050716;28;20075;-42
2022/08/13 07:10:51;;;;;;;15.98;7.05;;;;;;;;;;5021415;28;21640;-45
2022/08/13 07:13:17;;;;;;;11.40;5.50;;;;;;;;;;5050852;28;20049;-41
2022/08/13 07:15:44;;;;;;;13.15;6.25;;;;;;;;;;5046212;28;20458;-45
2022/08/13 07:18:12;;;;;;;12.43;6.35;;;;;;;;;;5044589;28;20044;-41
2022/08/13 07:20:54;;;;;;;13.05;4.75;;;;;;;;;;4846394;28;10001193;-42
2022/08/13 07:23:20;;;;;;;13.07;6.65;;;;;;;;;;5037555;28;20987;-44
2022/08/13 07:25:48;;;;;;;10.50;5.37;;;;;;;;;;5039032;28;20084;-40
2022/08/13 07:28:18;;;;;;;16.33;6.80;;;;;;;;;;5035309;28;20439;-41
2022/08/13 07:30:46;;;;;;;13.43;6.07;;;;;;;;;;5038441;28;20051;-41
2022/08/13 07:33:14;;;;;;;9.45;5.03;;;;;;;;;;5028175;28;20053;-42
2022/08/13 07:35:40;;;;;;;10.77;5.32;;;;;;;;;;5021014;28;20111;-41
2022/08/13 07:38:07;;;;;;;13.67;5.37;;;;;;;;;;5038567;28;21086;-42
2022/08/13 07:40:34;;;;;;;13.15;4.97;;;;;;;;;;5031968;28;20329;-44
2022/08/13 07:43:04;;;;;;;13.27;5.70;;;;;;;;;;4657719;28;9999947;-46
2022/08/13 07:45:30;;;;;;;12.73;5.47;;;;;;;;;;4657534;28;10000788;-40
2022/08/13 07:47:59;;;;;;;12.70;5.53;;;;;;;;;;5015461;28;20721;-44
2022/08/13 07:50:27;;;;;;;11.68;5.00;;;;;;;;;;4677476;28;10000325;-43
2022/08/13 07:52:55;;;;;;;11.43;5.03;;;;;;;;;;5024063;28;20045;-43
2022/08/13 07:55:23;;;;;;;11.32;5.28;;;;;;;;;;5048355;28;20163;-44
2022/08/13 07:57:51;;;;;;;10.75;4.78;;;;;;;;;;5044540;28;20053;-45
2022/08/13 08:00:21;;;;;;;11.03;6.20;;;;;;;;;;4698035;28;10000858;-43
2022/08/13 08:02:48;;;;;;;15.02;5.65;;;;;;;;;;5037298;28;20047;-41
2022/08/13 08:05:15;;;;;;;13.10;5.65;;;;;;;;;;5053589;28;20065;-41
2022/08/13 08:07:44;;;;;;;10.20;5.60;;;;;;;;;;5048282;28;20553;-43
2022/08/13 08:10:10;;;;;;;14.60;6.50;;;;;;;;;;5020982;28;20974;-44
2022/08/13 08:12:37;;;;;;;13.43;5.80;;;;;;;;;;5031836;28;20103;-39
2022/08/13 08:15:06;;;;;;;9.63;5.68;;;;;;;;;;5031190;28;20067;-43
2022/08/13 08:17:33;;;;;;;8.80;5.05;;;;;;;;;;5055810;28;20044;-48
2022/08/13 08:20:00;;;;;;;13.73;5.65;;;;;;;;;;5037605;28;20767;-44
2022/08/13 08:22:27;;;;;;;11.13;4.20;;;;;;;;;;5050465;28;20045;-45
2022/08/13 08:24:55;;;;;;;9.32;5.00;;;;;;;;;;5045080;28;20053;-42
2022/08/13 08:27:23;;;;;;;13.43;5.55;;;;;;;;;;5051068;28;20045;-40
2022/08/13 08:29:51;;;;;;;11.18;5.57;;;;;;;;;;5048113;28;20049;-40
2022/08/13 08:32:18;;;;;;;14.38;6.50;;;;;;;;;;5054878;28;20048;-39
2022/08/13 08:34:50;;;;;;;10.13;4.70;;;;;;;;;;5024971;28;20581;-41
2022/08/13 08:42:35;;;;;;;8.07;4.80;;;;;;;;;;5030592;28;20071;-43
2022/08/13 08:42:51;;;;;;;9.55;4.95;;;;;;;;;;5041205;28;20055;-42
2022/08/13 08:45:19;;;;;;;10.77;4.80;;;;;;;;;;5029919;28;20076;-43
2022/08/13 08:47:47;;;;;;;9.77;6.07;;;;;;;;;;5037604;28;21386;-47
2022/08/13 08:50:15;;;;;;;12.45;5.28;;;;;;;;;;5041598;28;20044;-45
2022/08/13 08:55:27;;;;;;;9.20;4.70;;;;;;;;;;5048344;28;20094;-43
2022/08/13 08:57:54;;;;;;;10.02;4.70;;;;;;;;;;5049796;28;20075;-44
2022/08/13 09:00:23;;;;;;;11.73;5.13;;;;;;;;;;5041290;28;20049;-43
2022/08/13 09:02:51;;;;;;;11.18;5.55;;;;;;;;;;5052172;28;20426;-43
2022/08/13 09:05:20;;;;;;;9.27;4.93;;;;;;;;;;5037766;28;20072;-46
2022/08/13 09:07:49;;;;;;;10.98;4.85;;;;;;;;;;5049692;28;20049;-44
2022/08/13 09:10:16;;;;;;;12.00;4.65;;;;;;;;;;5039470;28;20082;-44
2022/08/13 09:12:44;;;;;;;10.50;4.87;;;;;;;;;;5051416;28;20107;-43
2022/08/13 09:15:12;;;;;;;11.80;5.72;;;;;;;;;;5009118;28;20049;-46
2022/08/13 09:17:40;;;;;;;11.63;4.65;;;;;;;;;;5055663;28;20110;-47
2022/08/13 09:20:12;;;;;;;13.45;4.32;;;;;;;;;;5037796;28;20048;-42
2022/08/13 09:22:41;;;;;;;9.52;5.53;;;;;;;;;;5028725;28;20045;-46
2022/08/13 09:25:08;;;;;;;8.20;5.10;;;;;;;;;;5037046;28;20459;-43
2022/08/13 09:27:35;;;;;;;9.32;4.80;;;;;;;;;;5047493;28;20063;-39
2022/08/13 09:30:04;;;;;;;12.20;5.07;;;;;;;;;;5030019;28;20049;-42
2022/08/13 09:32:31;;;;;;;9.57;5.45;;;;;;;;;;5021038;28;20604;-43
2022/08/13 09:34:58;;;;;;;11.70;4.93;;;;;;;;;;5036197;28;20045;-42
2022/08/13 09:37:25;;;;;;;9.53;4.57;;;;;;;;;;5043935;28;20045;-42
2022/08/13 09:39:53;;;;;;;13.75;5.18;;;;;;;;;;5040714;28;20053;-42
2022/08/13 09:42:24;;;;;;;13.68;5.35;;;;;;;;;;5044970;28;20079;-43
2022/08/13 09:44:53;;;;;;;9.18;4.57;;;;;;;;;;5034459;28;20045;-46
2022/08/13 09:47:21;;;;;;;8.57;4.68;;;;;;;;;;5034177;28;20087;-45
2022/08/13 09:49:48;;;;;;;9.57;5.07;;;;;;;;;;5056440;28;20044;-43
2022/08/13 09:52:15;;;;;;;9.88;4.90;;;;;;;;;;5030050;28;20049;-42
2022/08/13 09:54:41;;;;;;;14.32;5.63;;;;;;;;;;5040656;28;20048;-40
2022/08/13 09:57:08;;;;;;;8.80;5.07;;;;;;;;;;5019938;28;20079;-42
2022/08/13 09:59:35;;;;;;;10.02;4.60;;;;;;;;;;5032443;28;20061;-44
2022/08/13 10:02:05;;;;;;;12.07;5.00;;;;;;;;;;4335644;28;10000394;-44
2022/08/13 10:04:33;;;;;;;10.20;4.80;;;;;;;;;;5035386;28;20041;-43
2022/08/13 10:06:59;;;;;;;9.05;4.53;;;;;;;;;;5039282;28;20076;-42
2022/08/13 10:09:26;;;;;;;10.17;4.67;;;;;;;;;;5035473;28;20071;-41
2022/08/13 10:11:53;;;;;;;10.40;5.40;;;;;;;;;;4997115;28;20048;-47
2022/08/13 10:14:20;;;;;;;10.15;4.45;;;;;;;;;;5027182;28;20053;-46
2022/08/13 10:16:46;;;;;;;10.88;5.68;;;;;;;;;;5030614;28;20045;-42
2022/08/13 10:19:12;;;;;;;10.75;4.95;;;;;;;;;;5015555;28;20060;-44
2022/08/13 10:21:41;;;;;;;11.37;5.43;;;;;;;;;;5030607;28;20053;-41
2022/08/13 10:24:08;;;;;;;7.85;4.25;;;;;;;;;;5031582;28;20053;-46
2022/08/13 10:26:34;;;;;;;9.63;4.80;;;;;;;;;;5022080;28;20707;-42
2022/08/13 10:29:01;;;;;;;11.40;5.28;;;;;;;;;;5034945;28;20074;-42
2022/08/13 10:31:28;;;;;;;10.10;5.18;;;;;;;;;;5023430;28;20318;-40
2022/08/13 10:33:54;;;;;;;12.53;5.37;;;;;;;;;;5033954;28;20048;-41
2022/08/13 10:36:21;;;;;;;10.02;5.03;;;;;;;;;;5029123;28;20041;-43
2022/08/13 10:38:49;;;;;;;9.45;5.20;;;;;;;;;;5036293;28;20057;-41
2022/08/13 10:41:16;;;;;;;9.18;5.13;;;;;;;;;;5027014;28;20865;-40
2022/08/13 10:43:43;;;;;;;7.43;4.35;;;;;;;;;;5035945;28;20056;-45
2022/08/13 10:46:11;;;;;;;8.30;4.60;;;;;;;;;;5018312;28;20682;-45
2022/08/13 10:48:38;;;;;;;9.00;4.65;;;;;;;;;;5034658;28;20049;-45
2022/08/13 10:51:05;;;;;;;9.73;5.22;;;;;;;;;;5024294;28;20553;-47
2022/08/13 10:56:17;;;;;;;9.50;4.93;;;;;;;;;;5028617;28;20096;-42
2022/08/13 10:58:44;;;;;;;11.80;5.17;;;;;;;;;;5027956;28;20311;-44
2022/08/13 11:01:11;;;;;;;9.77;4.70;;;;;;;;;;5030146;28;20088;-41
2022/08/13 11:03:38;;;;;;;10.25;5.47;;;;;;;;;;5021308;28;20108;-42
2022/08/13 11:06:05;;;;;;;8.20;4.50;;;;;;;;;;5041823;28;20048;-42
2022/08/13 11:08:37;;;;;;;9.30;4.78;;;;;;;;;;5053392;28;20047;-45
2022/08/13 11:11:04;;;;;;;9.07;4.70;;;;;;;;;;5037593;28;20051;-43
2022/08/13 11:13:32;;;;;;;9.50;4.65;;;;;;;;;;5060303;28;20060;-41
2022/08/13 11:15:59;;;;;;;8.60;4.93;;;;;;;;;;5022169;28;20045;-46
2022/08/13 11:18:27;;;;;;;7.10;3.78;;;;;;;;;;5053057;28;20049;-42
2022/08/13 11:21:06;;;;;;;11.23;5.10;;;;;;;;;;5039824;28;20124;-50
2022/08/13 11:23:33;;;;;;;9.13;5.27;;;;;;;;;;5028439;28;20049;-40
2022/08/13 11:25:59;;;;;;;8.50;3.88;;;;;;;;;;5041201;28;20068;-43
2022/08/13 11:28:26;;;;;;;8.63;4.57;;;;;;;;;;5037262;28;20076;-39
2022/08/13 11:30:55;;;;;;;9.50;5.22;;;;;;;;;;5053568;28;20325;-41
2022/08/13 11:33:25;;;;;;;7.30;3.78;;;;;;;;;;5040267;28;20087;-42
2022/08/13 11:35:52;;;;;;;9.77;4.47;;;;;;;;;;5044265;28;20104;-39
2022/08/13 11:38:20;;;;;;;10.05;4.95;;;;;;;;;;5039101;28;20079;-42
2022/08/13 11:40:47;;;;;;;14.55;4.47;;;;;;;;;;5055096;28;20052;-41
2022/08/13 11:43:13;;;;;;;7.80;4.28;;;;;;;;;;5042957;28;20078;-44
2022/08/13 11:45:40;;;;;;;7.95;4.30;;;;;;;;;;5055392;28;20067;-41
2022/08/13 11:48:08;;;;;;;8.53;4.90;;;;;;;;;;5039494;28;20087;-44
2022/08/13 11:50:35;;;;;;;8.13;4.40;;;;;;;;;;5042521;28;20041;-43
2022/08/13 11:53:02;;;;;;;8.98;4.25;;;;;;;;;;5029763;28;20048;-43
2022/08/13 11:55:29;;;;;;;8.85;4.07;;;;;;;;;;5047393;28;20498;-46
2022/08/13 11:57:58;;;;;;;8.57;4.82;;;;;;;;;;5042161;28;20309;-40
2022/08/13 12:00:26;;;;;;;10.17;5.10;;;;;;;;;;5049455;28;20053;-43
2022/08/13 12:02:52;;;;;;;9.18;4.32;;;;;;;;;;5046691;28;20060;-41
2022/08/13 12:05:20;;;;;;;8.07;4.07;;;;;;;;;;5053388;28;20133;-40
2022/08/13 12:07:47;;;;;;;8.88;4.45;;;;;;;;;;5050928;28;20076;-43
2022/08/13 12:10:16;;;;;;;8.60;5.05;;;;;;;;;;5055011;28;20056;-50
2022/08/13 12:12:43;;;;;;;7.50;4.87;;;;;;;;;;5043360;28;20044;-44
2022/08/13 12:15:11;;;;;;;10.15;4.95;;;;;;;;;;5062103;28;20123;-44
2022/08/13 12:17:40;;;;;;;9.68;4.38;;;;;;;;;;5035457;28;20047;-40
2022/08/13 12:20:08;;;;;;;7.70;4.82;;;;;;;;;;5039910;28;20053;-44
2022/08/13 12:22:36;;;;;;;7.57;4.97;;;;;;;;;;5036829;28;20053;-40
2022/08/13 12:25:04;;;;;;;9.47;4.27;;;;;;;;;;5053626;28;20041;-43
2022/08/13 12:27:31;;;;;;;8.75;4.18;;;;;;;;;;5042075;28;20049;-42
2022/08/13 12:29:57;;;;;;;7.68;4.05;;;;;;;;;;5038633;28;20097;-44
2022/08/13 12:32:24;;;;;;;7.50;3.88;;;;;;;;;;5050281;28;20063;-41
2022/08/13 12:34:51;;;;;;;6.88;3.50;;;;;;;;;;5035474;28;20052;-44
2022/08/13 12:37:17;;;;;;;11.73;4.17;;;;;;;;;;5046888;28;20068;-41
2022/08/13 12:39:45;;;;;;;6.10;3.70;;;;;;;;;;5041584;28;20439;-43
2022/08/13 12:42:12;;;;;;;9.77;4.10;;;;;;;;;;5054038;28;20049;-44
2022/08/13 12:44:38;;;;;;;10.68;4.43;;;;;;;;;;5043782;28;20049;-43
2022/08/13 12:47:05;;;;;;;6.60;4.07;;;;;;;;;;5047592;28;20053;-46
2022/08/13 12:49:31;;;;;;;6.10;3.60;;;;;;;;;;5049670;28;20048;-43
2022/08/13 12:51:58;;;;;;;8.20;4.03;;;;;;;;;;5046881;28;20052;-41
2022/08/13 12:54:25;;;;;;;6.57;4.40;;;;;;;;;;5038435;28;20609;-46
2022/08/13 12:56:53;;;;;;;7.82;4.07;;;;;;;;;;5042617;28;20040;-41
2022/08/13 12:59:20;;;;;;;9.73;4.15;;;;;;;;;;4348663;28;10000646;-40
2022/08/13 13:01:52;;;;;;;8.00;4.20;;;;;;;;;;5018675;28;20115;-41
2022/08/13 13:04:20;;;;;;;8.93;4.07;;;;;;;;;;5028971;28;20073;-42
2022/08/13 13:06:47;;;;;;;8.07;4.10;;;;;;;;;;5049086;28;20068;-40
2022/08/13 13:09:13;;;;;;;6.40;3.40;;;;;;;;;;5044725;28;20041;-48
2022/08/13 13:11:40;;;;;;;7.03;4.22;;;;;;;;;;5038260;28;20049;-40
2022/08/13 13:14:08;;;;;;;7.73;4.27;;;;;;;;;;5039885;28;20928;-42
2022/08/13 13:16:35;;;;;;;6.47;3.90;;;;;;;;;;5043211;28;20581;-44
2022/08/13 13:19:02;;;;;;;8.80;4.38;;;;;;;;;;5043214;28;20075;-42
2022/08/13 13:21:29;;;;;;;8.48;4.28;;;;;;;;;;5040168;28;20057;-44
2022/08/13 13:23:56;;;;;;;8.57;3.87;;;;;;;;;;4694443;28;10000474;-45
2022/08/13 13:26:23;;;;;;;6.95;4.00;;;;;;;;;;5041125;28;20041;-43
2022/08/13 13:28:52;;;;;;;7.40;4.38;;;;;;;;;;5051163;28;20098;-42
2022/08/13 13:31:20;;;;;;;7.13;3.90;;;;;;;;;;5042848;28;20059;-46
2022/08/13 13:33:46;;;;;;;7.27;3.80;;;;;;;;;;5034051;28;20457;-44
2022/08/13 13:36:13;;;;;;;6.78;4.05;;;;;;;;;;5019605;28;21247;-44
2022/08/13 13:38:40;;;;;;;7.88;3.97;;;;;;;;;;5013446;28;20052;-41
2022/08/13 13:41:07;;;;;;;8.80;3.95;;;;;;;;;;5026941;28;20087;-49
2022/08/13 13:43:34;;;;;;;8.00;4.38;;;;;;;;;;5033985;28;21343;-44
2022/08/13 13:46:02;;;;;;;7.10;4.40;;;;;;;;;;5027262;28;20375;-43
2022/08/13 13:48:32;;;;;;;7.38;4.28;;;;;;;;;;5031938;28;20052;-48
2022/08/13 13:50:59;;;;;;;7.93;4.10;;;;;;;;;;5023290;28;20135;-42
2022/08/13 13:53:27;;;;;;;7.85;4.28;;;;;;;;;;5015860;28;20044;-43
2022/08/13 13:55:54;;;;;;;6.53;4.10;;;;;;;;;;5028763;28;20554;-46
2022/08/13 13:58:22;;;;;;;6.83;4.37;;;;;;;;;;5005148;28;20803;-42
2022/08/13 14:00:50;;;;;;;6.55;4.00;;;;;;;;;;5026356;28;20051;-41
2022/08/13 14:03:16;;;;;;;6.55;4.10;;;;;;;;;;5042941;28;20071;-45
2022/08/13 14:05:45;;;;;;;7.53;4.22;;;;;;;;;;5054272;28;20322;-42
2022/08/13 14:08:12;;;;;;;7.65;3.85;;;;;;;;;;5020620;28;20045;-44
2022/08/13 14:10:42;;;;;;;9.67;4.13;;;;;;;;;;5052883;28;20055;-41
2022/08/13 14:13:09;;;;;;;6.35;4.13;;;;;;;;;;5035590;28;20047;-42
2022/08/13 14:15:36;;;;;;;9.88;4.25;;;;;;;;;;5040686;28;20044;-42
2022/08/13 14:18:05;;;;;;;7.85;4.05;;;;;;;;;;5027377;28;20060;-45
2022/08/13 14:20:33;;;;;;;6.85;3.80;;;;;;;;;;5054959;28;20052;-45
2022/08/13 14:23:01;;;;;;;8.00;3.30;;;;;;;;;;5047704;28;20798;-43
2022/08/13 14:25:30;;;;;;;6.28;3.60;;;;;;;;;;5045477;28;20052;-43
2022/08/13 14:27:56;;;;;;;7.60;4.38;;;;;;;;;;5047752;28;20106;-41
2022/08/13 14:30:24;;;;;;;7.18;3.90;;;;;;;;;;5040786;28;20052;-43
2022/08/13 14:32:50;;;;;;;7.60;3.90;;;;;;;;;;5024914;28;20105;-45
2022/08/13 14:35:17;;;;;;;6.00;3.93;;;;;;;;;;5050499;28;20052;-40
2022/08/13 14:37:45;;;;;;;6.10;3.33;;;;;;;;;;5005545;28;20041;-44
2022/08/13 14:40:15;;;;;;;7.10;3.78;;;;;;;;;;5049959;28;20056;-44
2022/08/13 14:42:43;;;;;;;10.77;3.75;;;;;;;;;;5046096;28;20216;-47
2022/08/13 14:47:59;;;;;;;8.50;4.37;;;;;;;;;;5033492;28;20045;-43
2022/08/13 14:50:26;;;;;;;7.35;3.60;;;;;;;;;;5044632;28;20083;-41
2022/08/13 14:52:53;;;;;;;6.85;4.30;;;;;;;;;;5041026;28;20055;-42
2022/08/13 14:55:22;;;;;;;6.00;3.80;;;;;;;;;;5046466;28;20441;-39
2022/08/13 14:57:49;;;;;;;9.73;3.58;;;;;;;;;;5042330;28;20048;-42
2022/08/13 15:00:17;;;;;;;6.20;3.87;;;;;;;;;;5042202;28;20103;-39
2022/08/13 15:02:45;;;;;;;5.97;3.50;;;;;;;;;;5039015;28;20451;-41